Time;durP1;ratioP1;P1;durP2;ratioP2;P2;SDS_P1;SDS_P2;PMS_P1;PMS_P2;Temp;Humidity;BMP_temperature;BMP_pressure;BME280_temperature;BME280_humidity;BME280_pressure;Samples;Min_cycle;Max_cycle;Signal;HPM_P1;HPM_P2
2021/01/05 00:01:35;;;;;;;3.70;2.78;;;;;;;-148.56;100.00;61375.16;5059348;28;20114;-40
2021/01/05 00:04:02;;;;;;;4.35;2.58;;;;;;;-148.56;100.00;61375.16;5060946;28;20045;-39
2021/01/05 00:06:27;;;;;;;3.13;2.55;;;;;;;-148.56;100.00;61375.16;5058746;28;20079;-33
2021/01/05 00:08:53;;;;;;;6.05;2.53;;;;;;;-148.56;100.00;61375.16;5061846;28;20120;-42
2021/01/05 00:11:19;;;;;;;2.95;2.45;;;;;;;-148.56;100.00;61375.16;5063189;28;20449;-41
2021/01/05 00:13:44;;;;;;;3.65;2.75;;;;;;;-148.56;100.00;61375.16;5054862;28;20135;-38
2021/01/05 00:16:10;;;;;;;3.55;2.25;;;;;;;-148.56;100.00;61375.16;5057591;28;20051;-39
2021/01/05 00:18:35;;;;;;;3.83;2.15;;;;;;;-148.56;100.00;61375.16;5055865;28;20039;-38
2021/01/05 00:21:01;;;;;;;4.00;2.63;;;;;;;-148.56;100.00;61375.16;5053396;28;20052;-40
2021/01/05 00:23:27;;;;;;;3.55;2.58;;;;;;;-148.56;100.00;61375.16;5059638;28;20051;-41
2021/01/05 00:25:52;;;;;;;3.45;2.40;;;;;;;-148.56;100.00;61375.16;5058348;28;20106;-39
2021/01/05 00:28:18;;;;;;;3.22;2.30;;;;;;;-148.56;100.00;61375.16;5060899;28;20520;-39
2021/01/05 00:30:43;;;;;;;2.50;2.05;;;;;;;-148.56;100.00;61375.16;5056161;28;20044;-42
2021/01/05 00:33:09;;;;;;;3.28;2.40;;;;;;;-148.56;100.00;61375.16;5072566;28;21560;-39
2021/01/05 00:35:36;;;;;;;3.55;2.53;;;;;;;-148.56;100.00;61375.16;5062771;28;20690;-41
2021/01/05 00:38:04;;;;;;;2.38;1.85;;;;;;;-148.56;100.00;61375.16;5062577;28;20051;-42
2021/01/05 00:40:29;;;;;;;3.83;2.10;;;;;;;-148.56;100.00;61375.16;5058289;28;20391;-41
2021/01/05 00:42:55;;;;;;;2.42;2.08;;;;;;;-148.56;100.00;61375.16;5064210;28;20043;-42
2021/01/05 00:45:35;;;;;;;2.50;2.20;;;;;;;-148.56;100.00;61375.16;5061008;28;20040;-41
2021/01/05 00:48:01;;;;;;;3.05;2.20;;;;;;;-148.56;100.00;61375.16;5053459;28;20028;-39
2021/01/05 00:50:27;;;;;;;2.88;2.15;;;;;;;-148.56;100.00;61375.16;5063633;28;20453;-40
2021/01/05 00:52:53;;;;;;;4.38;2.50;;;;;;;-148.56;100.00;61375.16;5059173;28;20094;-39
2021/01/05 00:55:18;;;;;;;2.63;2.00;;;;;;;-148.56;100.00;61375.16;5054294;28;20044;-40
2021/01/05 00:57:44;;;;;;;2.22;1.85;;;;;;;-148.56;100.00;61375.16;5050918;28;20054;-42
2021/01/05 01:00:16;;;;;;;2.58;1.95;;;;;;;-148.56;100.00;61375.16;5058768;28;20119;-33
2021/01/05 01:02:44;;;;;;;2.47;2.10;;;;;;;-148.56;100.00;61375.16;5057539;28;20058;-40
2021/01/05 01:05:10;;;;;;;2.40;2.20;;;;;;;-148.56;100.00;61375.16;5055439;28;20579;-38
2021/01/05 01:07:36;;;;;;;2.40;2.10;;;;;;;-148.56;100.00;61375.16;5061403;28;20044;-40
2021/01/05 01:10:03;;;;;;;2.20;1.95;;;;;;;-148.56;100.00;61375.16;5055829;28;20087;-37
2021/01/05 01:12:29;;;;;;;3.55;2.28;;;;;;;-148.56;100.00;61375.16;5058618;28;20045;-39
2021/01/05 01:14:54;;;;;;;2.38;1.80;;;;;;;-148.56;100.00;61375.16;5060834;28;20114;-38
2021/01/05 01:17:21;;;;;;;1.90;1.70;;;;;;;-148.56;100.00;61375.16;5057335;28;20604;-42
2021/01/05 01:19:46;;;;;;;2.30;1.90;;;;;;;-148.56;100.00;61375.16;5058621;28;20040;-39
2021/01/05 01:22:12;;;;;;;2.10;1.90;;;;;;;-148.56;100.00;61375.16;5054395;28;20036;-39
2021/01/05 01:24:37;;;;;;;1.85;1.65;;;;;;;-148.56;100.00;61375.16;5066175;28;20098;-37
2021/01/05 01:27:03;;;;;;;1.92;1.73;;;;;;;-148.56;100.00;61375.16;5057172;28;20040;-40
2021/01/05 01:29:31;;;;;;;2.17;1.70;;;;;;;-148.56;100.00;61375.16;5053530;28;20529;-40
2021/01/05 01:31:56;;;;;;;2.10;1.83;;;;;;;-148.56;100.00;61375.16;5053049;28;20098;-39
2021/01/05 01:34:23;;;;;;;2.30;1.80;;;;;;;-148.56;100.00;61375.16;5061661;28;20044;-38
2021/01/05 01:37:01;;;;;;;2.17;1.98;;;;;;;-148.56;100.00;61375.16;5058745;28;20056;-40
2021/01/05 01:39:27;;;;;;;4.15;2.00;;;;;;;-148.56;100.00;61375.16;5062233;28;20028;-37
2021/01/05 01:41:53;;;;;;;1.85;1.67;;;;;;;-148.56;100.00;61375.16;5062171;28;20040;-40
2021/01/05 01:44:20;;;;;;;2.13;1.83;;;;;;;-148.56;100.00;61375.16;5062454;28;20039;-38
2021/01/05 01:46:46;;;;;;;2.17;1.85;;;;;;;-148.56;100.00;61375.16;5060401;28;20139;-39
2021/01/05 01:49:11;;;;;;;2.38;1.80;;;;;;;-148.56;100.00;61375.16;5034527;28;20051;-40
2021/01/05 01:51:37;;;;;;;1.88;1.70;;;;;;;-148.56;100.00;61375.16;5074315;28;20037;-41
2021/01/05 01:54:21;;;;;;;2.50;1.73;;;;;;;-148.56;100.00;61375.16;5050432;28;20550;-41
2021/01/05 01:57:27;;;;;;;2.35;2.00;;;;;;;-148.56;100.00;61375.16;5072370;28;20090;-38
2021/01/05 02:00:08;;;;;;;2.15;1.77;;;;;;;-148.56;100.00;61375.16;5055071;28;21310;-37
2021/01/05 02:02:50;;;;;;;1.60;1.42;;;;;;;-148.56;100.00;61375.16;5077760;28;20550;-40
2021/01/05 02:05:16;;;;;;;1.77;1.67;;;;;;;-148.56;100.00;61375.16;5056845;28;20024;-41
2021/01/05 02:08:00;;;;;;;2.65;1.60;;;;;;;-148.56;100.00;61375.16;5059626;28;20561;-43
2021/01/05 02:10:41;;;;;;;1.77;1.67;;;;;;;-148.56;100.00;61375.16;5064757;28;20032;-42
2021/01/05 02:13:15;;;;;;;2.83;1.98;;;;;;;-148.56;100.00;61375.16;5059810;28;20082;-39
2021/01/05 02:15:52;;;;;;;2.08;1.75;;;;;;;-148.56;100.00;61375.16;5057336;28;20377;-39
2021/01/05 02:18:33;;;;;;;2.40;1.90;;;;;;;-148.56;100.00;61375.16;5057519;28;20421;-38
2021/01/05 02:21:26;;;;;;;2.38;1.60;;;;;;;-148.56;100.00;61375.16;5064838;28;20040;-42
2021/01/05 02:24:12;;;;;;;1.77;1.55;;;;;;;-148.56;100.00;61375.16;5048824;28;20033;-40
2021/01/05 02:26:40;;;;;;;2.85;1.30;;;;;;;-148.56;100.00;61375.16;5052672;28;20387;-39
2021/01/05 02:29:09;;;;;;;2.13;1.83;;;;;;;-148.56;100.00;61375.16;5070627;28;20588;-40
2021/01/05 02:32:09;;;;;;;1.55;1.40;;;;;;;-148.56;100.00;61375.16;5056333;28;20037;-41
2021/01/05 02:34:40;;;;;;;2.45;1.85;;;;;;;-148.56;100.00;61375.16;5055780;28;20035;-40
2021/01/05 02:37:41;;;;;;;2.75;1.60;;;;;;;-148.56;100.00;61375.16;5060910;28;20122;-41
2021/01/05 02:40:31;;;;;;;1.63;1.50;;;;;;;-148.56;100.00;61375.16;5077478;28;20551;-38
2021/01/05 02:43:15;;;;;;;1.95;1.70;;;;;;;-148.56;100.00;61375.16;5060977;28;20024;-40
2021/01/05 02:46:07;;;;;;;1.40;1.30;;;;;;;-148.56;100.00;61375.16;5056615;28;20041;-41
2021/01/05 02:48:43;;;;;;;2.03;1.60;;;;;;;-148.56;100.00;61375.16;5046953;28;20048;-37
2021/01/05 02:51:24;;;;;;;1.90;1.40;;;;;;;-148.56;100.00;61375.16;5042280;28;20024;-40
2021/01/05 02:54:26;;;;;;;2.53;1.65;;;;;;;-148.56;100.00;61375.16;5065846;28;20076;-38
2021/01/05 02:57:11;;;;;;;1.60;1.50;;;;;;;-148.56;100.00;61375.16;5075384;28;20666;-40
2021/01/05 03:00:01;;;;;;;1.73;1.42;;;;;;;-148.56;100.00;61375.16;5059697;28;20044;-38
2021/01/05 03:02:57;;;;;;;2.70;1.60;;;;;;;-148.56;100.00;61375.16;5052196;28;20036;-40
2021/01/05 03:05:22;;;;;;;1.58;1.48;;;;;;;-148.56;100.00;61375.16;5055423;28;20669;-40
2021/01/05 03:07:48;;;;;;;1.50;1.40;;;;;;;-148.56;100.00;61375.16;5059592;28;20115;-41
2021/01/05 03:10:16;;;;;;;1.35;1.20;;;;;;;-148.56;100.00;61375.16;5057196;28;20530;-36
2021/01/05 03:13:06;;;;;;;1.65;1.50;;;;;;;-148.56;100.00;61375.16;5061881;28;20119;-40
2021/01/05 03:15:38;;;;;;;1.33;1.23;;;;;;;-148.56;100.00;61375.16;5055421;28;20127;-40
2021/01/05 03:18:57;;;;;;;1.67;1.58;;;;;;;-148.56;100.00;61375.16;5061053;28;20581;-38
2021/01/05 03:21:34;;;;;;;2.10;1.40;;;;;;;-148.56;100.00;61375.16;5037582;28;20041;-41
2021/01/05 03:23:59;;;;;;;1.65;1.50;;;;;;;-148.56;100.00;61375.16;5037467;28;20025;-42
2021/01/05 03:26:35;;;;;;;1.30;1.20;;;;;;;-148.56;100.00;61375.16;5054522;28;20075;-39
2021/01/05 03:29:00;;;;;;;1.50;1.40;;;;;;;-148.56;100.00;61375.16;5061370;28;20103;-39
2021/01/05 03:31:30;;;;;;;3.70;1.27;;;;;;;-148.56;100.00;61375.16;5058320;28;20472;-40
2021/01/05 03:34:01;;;;;;;1.50;1.40;;;;;;;-148.56;100.00;61375.16;5084533;28;20473;-37
2021/01/05 03:36:27;;;;;;;1.20;1.10;;;;;;;-148.56;100.00;61375.16;5074452;28;20031;-40
2021/01/05 03:38:52;;;;;;;1.42;1.30;;;;;;;-148.56;100.00;61375.16;5056503;28;20064;-40
2021/01/05 03:41:18;;;;;;;1.60;1.50;;;;;;;-148.56;100.00;61375.16;5064208;28;20055;-40
2021/01/05 03:43:43;;;;;;;4.25;1.55;;;;;;;-148.56;100.00;61375.16;5061503;28;20040;-42
2021/01/05 03:46:11;;;;;;;1.27;1.17;;;;;;;-148.56;100.00;61375.16;5055415;28;21561;-40
2021/01/05 03:48:36;;;;;;;1.88;1.30;;;;;;;-148.56;100.00;61375.16;5056352;28;20543;-38
2021/01/05 03:51:02;;;;;;;2.00;1.52;;;;;;;-148.56;100.00;61375.16;5074788;28;20028;-38
2021/01/05 03:53:27;;;;;;;2.25;1.00;;;;;;;-148.56;100.00;61375.16;5062905;28;20040;-40
2021/01/05 03:55:53;;;;;;;1.10;1.00;;;;;;;-148.56;100.00;61375.16;5062287;28;20059;-39
2021/01/05 03:58:19;;;;;;;1.38;1.27;;;;;;;-148.56;100.00;61375.16;5053785;28;20040;-40
2021/01/05 04:00:44;;;;;;;1.52;1.40;;;;;;;-148.56;100.00;61375.16;5061784;28;20044;-36
2021/01/05 04:03:10;;;;;;;1.38;1.27;;;;;;;-148.56;100.00;61375.16;5058845;28;20036;-42
2021/01/05 04:05:35;;;;;;;1.33;1.23;;;;;;;-148.56;100.00;61375.16;5057090;28;20063;-39
2021/01/05 04:08:00;;;;;;;1.10;1.00;;;;;;;-148.56;100.00;61375.16;5061609;28;20040;-41
2021/01/05 04:10:27;;;;;;;1.40;1.30;;;;;;;-148.56;100.00;61375.16;5063556;28;20036;-39
2021/01/05 04:12:53;;;;;;;1.55;1.45;;;;;;;-148.56;100.00;61375.16;5063257;28;20040;-38
2021/01/05 04:15:24;;;;;;;1.58;1.48;;;;;;;-148.56;100.00;61375.16;5049866;28;20048;-41
2021/01/05 04:17:51;;;;;;;1.23;1.13;;;;;;;-148.56;100.00;61375.16;5054986;28;20055;-41
2021/01/05 04:20:17;;;;;;;1.20;1.10;;;;;;;-148.56;100.00;61375.16;5059043;28;20029;-38
2021/01/05 04:22:43;;;;;;;1.25;1.15;;;;;;;-148.56;100.00;61375.16;5057748;28;20060;-41
2021/01/05 04:25:09;;;;;;;2.22;1.20;;;;;;;-148.56;100.00;61375.16;5062465;28;20413;-37
2021/01/05 04:27:34;;;;;;;2.25;1.52;;;;;;;-148.56;100.00;61375.16;5055455;28;20043;-37
2021/01/05 04:30:01;;;;;;;2.03;1.27;;;;;;;-148.56;100.00;61375.16;5057178;28;20049;-39
2021/01/05 04:32:26;;;;;;;1.30;1.20;;;;;;;-148.56;100.00;61375.16;5051153;28;20040;-37
2021/01/05 04:34:52;;;;;;;1.85;1.60;;;;;;;-148.56;100.00;61375.16;5063051;28;20577;-40
2021/01/05 04:37:17;;;;;;;1.27;1.17;;;;;;;-148.56;100.00;61375.16;5063051;28;20039;-37
2021/01/05 04:39:43;;;;;;;1.30;1.20;;;;;;;-148.56;100.00;61375.16;5072229;28;20101;-39
2021/01/05 04:42:29;;;;;;;2.47;1.40;;;;;;;-148.56;100.00;61375.16;5066562;28;20047;-39
2021/01/05 04:44:58;;;;;;;1.30;1.20;;;;;;;-148.56;100.00;61375.16;5072610;28;20050;-40
2021/01/05 04:47:42;;;;;;;1.52;1.30;;;;;;;-148.56;100.00;61375.16;5060097;28;20417;-41
2021/01/05 04:50:41;;;;;;;1.70;1.30;;;;;;;-148.56;100.00;61375.16;5056691;28;20029;-39
2021/01/05 04:53:26;;;;;;;1.92;1.30;;;;;;;-148.56;100.00;61375.16;5056497;28;20063;-38
2021/01/05 04:56:00;;;;;;;1.58;1.27;;;;;;;-148.56;100.00;61375.16;5062697;28;20363;-41
2021/01/05 04:58:30;;;;;;;1.65;1.10;;;;;;;-148.56;100.00;61375.16;5078714;28;20046;-39
2021/01/05 05:00:55;;;;;;;1.48;1.38;;;;;;;-148.56;100.00;61375.16;5052363;28;20044;-42
2021/01/05 05:03:52;;;;;;;5.20;1.25;;;;;;;-148.56;100.00;61375.16;5072179;28;20442;-37
2021/01/05 05:06:42;;;;;;;1.50;1.25;;;;;;;-148.56;100.00;61375.16;5075416;28;20031;-39
2021/01/05 05:09:26;;;;;;;2.10;1.20;;;;;;;-148.56;100.00;61375.16;5075250;28;20048;-37
2021/01/05 05:12:08;;;;;;;1.25;1.15;;;;;;;-148.56;100.00;61375.16;5060809;28;20036;-39
2021/01/05 05:15:05;;;;;;;2.85;1.58;;;;;;;-148.56;100.00;61375.16;5064939;28;20029;-41
2021/01/05 05:18:13;;;;;;;1.20;1.10;;;;;;;-148.56;100.00;61375.16;5055970;28;20110;-40
2021/01/05 05:20:54;;;;;;;1.58;1.42;;;;;;;-148.56;100.00;61375.16;5039379;28;20030;-38
2021/01/05 05:23:37;;;;;;;1.35;1.25;;;;;;;-148.56;100.00;61375.16;5064567;28;20729;-40
2021/01/05 05:26:10;;;;;;;3.08;1.13;;;;;;;-148.56;100.00;61375.16;5058862;28;20055;-39
2021/01/05 05:29:03;;;;;;;1.40;1.30;;;;;;;-148.56;100.00;61375.16;5057320;28;20024;-40
2021/01/05 05:31:30;;;;;;;1.30;1.20;;;;;;;-148.56;100.00;61375.16;5053458;28;20040;-38
2021/01/05 05:34:04;;;;;;;1.70;1.60;;;;;;;-148.56;100.00;61375.16;5061746;28;20616;-36
2021/01/05 05:36:49;;;;;;;1.50;1.38;;;;;;;-148.56;100.00;61375.16;5060148;28;20079;-40
2021/01/05 05:39:29;;;;;;;1.38;1.20;;;;;;;-148.56;100.00;61375.16;5064581;28;20041;-39
2021/01/05 05:42:10;;;;;;;1.55;1.45;;;;;;;-148.56;100.00;61375.16;5046742;28;20043;-38
2021/01/05 05:45:03;;;;;;;1.52;1.42;;;;;;;-148.56;100.00;61375.16;5057677;28;20032;-41
2021/01/05 05:47:32;;;;;;;1.50;1.35;;;;;;;-148.56;100.00;61375.16;5057661;28;20048;-38
2021/01/05 05:50:06;;;;;;;1.85;1.50;;;;;;;-148.56;100.00;61375.16;5060813;28;20066;-39
2021/01/05 05:52:33;;;;;;;1.30;1.20;;;;;;;-148.56;100.00;61375.16;5064569;28;20036;-39
2021/01/05 05:55:00;;;;;;;2.03;1.23;;;;;;;-148.56;100.00;61375.16;5074178;28;20044;-39
2021/01/05 05:57:35;;;;;;;1.17;1.08;;;;;;;-148.56;100.00;61375.16;5061117;28;20098;-37
2021/01/05 06:00:14;;;;;;;1.40;1.30;;;;;;;-148.56;100.00;61375.16;5061701;28;20040;-37
2021/01/05 06:02:40;;;;;;;1.52;1.30;;;;;;;-148.56;100.00;61375.16;5070530;28;20564;-41
2021/01/05 06:05:25;;;;;;;1.50;1.38;;;;;;;-148.56;100.00;61375.16;5065259;28;20075;-41
2021/01/05 06:07:50;;;;;;;2.05;1.50;;;;;;;-148.56;100.00;61375.16;5079171;28;20044;-36
2021/01/05 06:10:16;;;;;;;1.83;1.20;;;;;;;-148.56;100.00;61375.16;5052756;28;20033;-38
2021/01/05 06:12:41;;;;;;;1.27;1.13;;;;;;;-148.56;100.00;61375.16;5061311;28;20036;-40
2021/01/05 06:15:09;;;;;;;1.23;1.13;;;;;;;-148.56;100.00;61375.16;5055220;28;20055;-36
2021/01/05 06:17:34;;;;;;;1.60;1.40;;;;;;;-148.56;100.00;61375.16;5060530;28;20055;-40
2021/01/05 06:20:00;;;;;;;1.48;1.35;;;;;;;-148.56;100.00;61375.16;5063020;28;20040;-41
2021/01/05 06:22:26;;;;;;;1.45;1.30;;;;;;;-148.56;100.00;61375.16;5061973;28;20099;-40
2021/01/05 06:24:52;;;;;;;1.35;1.25;;;;;;;-148.56;100.00;61375.16;5063955;28;20137;-40
2021/01/05 06:27:18;;;;;;;2.17;1.40;;;;;;;-148.56;100.00;61375.16;5061182;28;20041;-40
2021/01/05 06:29:44;;;;;;;1.58;1.48;;;;;;;-148.56;100.00;61375.16;5059780;28;20036;-39
2021/01/05 06:32:10;;;;;;;3.42;1.40;;;;;;;-148.56;100.00;61375.16;5055038;28;20068;-38
2021/01/05 06:34:35;;;;;;;1.55;1.45;;;;;;;-148.56;100.00;61375.16;5059611;28;20120;-41
2021/01/05 06:37:02;;;;;;;1.67;1.40;;;;;;;-148.56;100.00;61375.16;5059966;28;20036;-39
2021/01/05 06:39:27;;;;;;;1.58;1.45;;;;;;;-148.56;100.00;61375.16;5056115;28;20543;-39
2021/01/05 06:41:53;;;;;;;1.25;1.15;;;;;;;-148.56;100.00;61375.16;5050903;28;20028;-41
2021/01/05 06:44:19;;;;;;;1.50;1.40;;;;;;;-148.56;100.00;61375.16;5060496;28;20040;-35
2021/01/05 06:46:49;;;;;;;1.42;1.30;;;;;;;-148.56;100.00;61375.16;5074538;28;20585;-41
2021/01/05 06:49:15;;;;;;;1.42;1.30;;;;;;;-148.56;100.00;61375.16;5058050;28;20024;-39
2021/01/05 06:51:41;;;;;;;1.73;1.30;;;;;;;-148.56;100.00;61375.16;5064583;28;20047;-38
2021/01/05 06:54:07;;;;;;;6.35;4.45;;;;;;;-148.56;100.00;61375.16;5055661;28;20033;-40
2021/01/05 06:56:33;;;;;;;4.78;3.40;;;;;;;-148.56;100.00;61375.16;5051918;28;20094;-38
2021/01/05 06:58:59;;;;;;;3.22;2.00;;;;;;;-148.56;100.00;61375.16;5057812;28;20029;-37
2021/01/05 07:01:24;;;;;;;2.97;2.08;;;;;;;-148.56;100.00;61375.16;5056847;28;20409;-41
2021/01/05 07:03:50;;;;;;;2.53;2.05;;;;;;;-148.56;100.00;61375.16;5058759;28;20044;-40
2021/01/05 07:06:16;;;;;;;2.20;1.90;;;;;;;-148.56;100.00;61375.16;5059994;28;20646;-37
2021/01/05 07:08:41;;;;;;;2.05;1.85;;;;;;;-148.56;100.00;61375.16;5065710;28;20098;-39
2021/01/05 07:11:07;;;;;;;2.75;2.10;;;;;;;-148.56;100.00;61375.16;5067394;28;20063;-37
2021/01/05 07:13:33;;;;;;;2.63;2.10;;;;;;;-148.56;100.00;61375.16;5054579;28;20070;-40
2021/01/05 07:15:59;;;;;;;2.38;1.90;;;;;;;-148.56;100.00;61375.16;5056406;28;20036;-39
2021/01/05 07:18:24;;;;;;;2.20;1.73;;;;;;;-148.56;100.00;61375.16;5060463;28;20459;-37
2021/01/05 07:20:50;;;;;;;1.80;1.67;;;;;;;-148.56;100.00;61375.16;5058268;28;20051;-41
2021/01/05 07:23:16;;;;;;;2.10;1.90;;;;;;;-148.56;100.00;61375.16;5059945;28;20045;-38
2021/01/05 07:25:42;;;;;;;2.00;1.73;;;;;;;-148.56;100.00;61375.16;5056268;28;21849;-39
2021/01/05 07:28:08;;;;;;;2.75;1.88;;;;;;;-148.56;100.00;61375.16;5060825;28;20047;-36
2021/01/05 07:30:33;;;;;;;1.98;1.77;;;;;;;-148.56;100.00;61375.16;5059587;28;22001;-39
2021/01/05 07:32:59;;;;;;;2.10;1.90;;;;;;;-148.56;100.00;61375.16;5058298;28;20075;-37
2021/01/05 07:35:25;;;;;;;5.88;2.60;;;;;;;-148.56;100.00;61375.16;5059481;28;20044;-39
2021/01/05 07:37:50;;;;;;;12.00;2.50;;;;;;;-148.56;100.00;61375.16;5060919;28;20509;-39
2021/01/05 07:40:19;;;;;;;5.93;2.78;;;;;;;-148.56;100.00;61375.16;5067168;28;20041;-39
2021/01/05 07:42:45;;;;;;;4.50;2.78;;;;;;;-148.56;100.00;61375.16;5060274;28;21629;-37
2021/01/05 07:45:16;;;;;;;5.32;2.92;;;;;;;-148.56;100.00;61375.16;5056254;28;20072;-42
2021/01/05 07:47:42;;;;;;;9.07;4.07;;;;;;;-148.56;100.00;61375.16;5069435;28;20657;-40
2021/01/05 07:50:09;;;;;;;9.98;3.10;;;;;;;-148.56;100.00;61375.16;5069618;28;20275;-37
2021/01/05 07:52:39;;;;;;;13.18;2.88;;;;;;;-148.56;100.00;61375.16;5068120;28;20044;-39
2021/01/05 07:55:13;;;;;;;10.00;2.83;;;;;;;-148.56;100.00;61375.16;5054366;28;20591;-41
2021/01/05 07:57:39;;;;;;;3.25;2.30;;;;;;;-148.56;100.00;61375.16;5055132;28;20024;-42
2021/01/05 08:00:06;;;;;;;2.75;2.45;;;;;;;-148.56;100.00;61375.16;5055740;28;20445;-41
2021/01/05 08:02:31;;;;;;;4.35;2.38;;;;;;;-148.56;100.00;61375.16;5050585;28;20072;-40
2021/01/05 08:04:57;;;;;;;4.35;2.75;;;;;;;-148.56;100.00;61375.16;5069977;28;20047;-36
2021/01/05 08:07:22;;;;;;;2.53;2.28;;;;;;;-148.56;100.00;61375.16;5056150;28;20394;-37
2021/01/05 08:09:48;;;;;;;3.53;2.17;;;;;;;-148.56;100.00;61375.16;5055021;28;20033;-39
2021/01/05 08:12:17;;;;;;;3.65;2.33;;;;;;;-148.56;100.00;61375.16;5055672;28;20033;-40
2021/01/05 08:14:43;;;;;;;2.85;2.20;;;;;;;-148.56;100.00;61375.16;5055556;28;20771;-39
2021/01/05 08:17:09;;;;;;;4.20;2.25;;;;;;;-148.56;100.00;61375.16;5052368;28;20063;-39
2021/01/05 08:19:34;;;;;;;2.85;2.33;;;;;;;-148.56;100.00;61375.16;5056373;28;20044;-40
2021/01/05 08:22:00;;;;;;;4.80;2.33;;;;;;;-148.56;100.00;61375.16;5056555;28;20040;-40
2021/01/05 08:24:26;;;;;;;4.20;2.28;;;;;;;-148.56;100.00;61375.16;5055075;28;20047;-40
2021/01/05 08:26:51;;;;;;;3.97;2.50;;;;;;;-148.56;100.00;61375.16;5055263;28;20128;-39
2021/01/05 08:29:17;;;;;;;2.55;2.35;;;;;;;-148.56;100.00;61375.16;5055600;28;20116;-40
2021/01/05 08:31:43;;;;;;;3.30;2.13;;;;;;;-148.56;100.00;61375.16;5054504;28;20040;-41
2021/01/05 08:34:09;;;;;;;2.97;2.30;;;;;;;-148.56;100.00;61375.16;5053940;28;20109;-41
2021/01/05 08:36:34;;;;;;;4.18;2.50;;;;;;;-148.56;100.00;61375.16;5055949;28;20040;-37
2021/01/05 08:39:02;;;;;;;2.38;2.10;;;;;;;-148.56;100.00;61375.16;5055462;28;20044;-39
2021/01/05 08:41:28;;;;;;;3.60;2.95;;;;;;;-148.56;100.00;61375.16;5057402;28;20036;-40
2021/01/05 08:43:54;;;;;;;6.30;2.80;;;;;;;-148.56;100.00;61375.16;5056312;28;20051;-40
2021/01/05 08:46:21;;;;;;;5.38;2.30;;;;;;;-148.56;100.00;61375.16;5052662;28;20121;-40
2021/01/05 08:48:47;;;;;;;3.30;2.40;;;;;;;-148.56;100.00;61375.16;5055603;28;20088;-42
2021/01/05 08:51:12;;;;;;;2.85;2.35;;;;;;;-148.56;100.00;61375.16;5055588;28;20045;-41
2021/01/05 08:53:38;;;;;;;2.95;2.55;;;;;;;-148.56;100.00;61375.16;5070768;28;20048;-40
2021/01/05 08:56:05;;;;;;;3.35;2.30;;;;;;;-148.56;100.00;61375.16;5053807;28;20028;-41
2021/01/05 08:58:31;;;;;;;3.63;2.50;;;;;;;-148.56;100.00;61375.16;5070430;28;20048;-42
2021/01/05 09:00:56;;;;;;;2.78;2.28;;;;;;;-148.56;100.00;61375.16;5053104;28;20428;-39
2021/01/05 09:03:22;;;;;;;2.90;2.25;;;;;;;-148.56;100.00;61375.16;5052831;28;20044;-40
2021/01/05 09:05:47;;;;;;;3.50;2.08;;;;;;;-148.56;100.00;61375.16;5053813;28;21702;-41
2021/01/05 09:08:14;;;;;;;2.60;2.05;;;;;;;-148.56;100.00;61375.16;5056692;28;20055;-38
2021/01/05 09:10:40;;;;;;;2.72;2.10;;;;;;;-148.56;100.00;61375.16;5049622;28;20048;-42
2021/01/05 09:13:06;;;;;;;4.53;2.25;;;;;;;-148.56;100.00;61375.16;5055720;28;20040;-40
2021/01/05 09:15:32;;;;;;;5.28;2.40;;;;;;;-148.56;100.00;61375.16;5054161;28;20041;-36
2021/01/05 09:18:01;;;;;;;2.72;2.33;;;;;;;-148.56;100.00;61375.16;5056339;28;20040;-37
2021/01/05 09:20:28;;;;;;;2.20;2.00;;;;;;;-148.56;100.00;61375.16;5057319;28;20054;-38
2021/01/05 09:22:53;;;;;;;2.50;2.05;;;;;;;-148.56;100.00;61375.16;5058275;28;20161;-38
2021/01/05 09:25:19;;;;;;;2.88;2.38;;;;;;;-148.56;100.00;61375.16;5059818;28;20045;-43
2021/01/05 09:27:44;;;;;;;2.78;2.10;;;;;;;-148.56;100.00;61375.16;5058061;28;20041;-38
2021/01/05 09:30:14;;;;;;;2.50;2.15;;;;;;;-148.56;100.00;61375.16;5056068;28;20040;-37
2021/01/05 09:32:40;;;;;;;12.90;5.13;;;;;;;-148.56;100.00;61375.16;5058796;28;20374;-40
2021/01/05 09:35:06;;;;;;;13.60;10.27;;;;;;;-148.56;100.00;61375.16;5064501;28;20043;-41
2021/01/05 09:37:32;;;;;;;11.45;10.00;;;;;;;-148.56;100.00;61375.16;5065184;28;20045;-39
2021/01/05 09:39:57;;;;;;;12.90;10.20;;;;;;;-148.56;100.00;61375.16;5061402;28;20386;-41
2021/01/05 09:42:23;;;;;;;8.93;8.02;;;;;;;-148.56;100.00;61375.16;5070675;28;20487;-36
2021/01/05 09:44:50;;;;;;;9.13;6.95;;;;;;;-148.56;100.00;61375.16;5059582;28;20036;-41
2021/01/05 09:47:20;;;;;;;7.18;6.05;;;;;;;-148.56;100.00;61375.16;5053685;28;20091;-40
2021/01/05 09:49:49;;;;;;;8.00;6.05;;;;;;;-148.56;100.00;61375.16;5057406;28;20039;-41
2021/01/05 09:52:15;;;;;;;6.25;5.53;;;;;;;-148.56;100.00;61375.16;5055444;28;20055;-37
2021/01/05 09:54:44;;;;;;;8.13;5.45;;;;;;;-148.56;100.00;61375.16;5069000;28;20045;-38
2021/01/05 09:57:09;;;;;;;11.65;5.15;;;;;;;-148.56;100.00;61375.16;5078433;28;20034;-40
2021/01/05 09:59:34;;;;;;;8.88;5.22;;;;;;;-148.56;100.00;61375.16;5064134;28;20059;-40
2021/01/05 10:02:03;;;;;;;9.02;5.20;;;;;;;-148.56;100.00;61375.16;5062610;28;20486;-37
2021/01/05 10:04:29;;;;;;;7.18;5.00;;;;;;;-148.56;100.00;61375.16;5058351;28;20098;-38
2021/01/05 10:06:55;;;;;;;10.05;5.18;;;;;;;-148.56;100.00;61375.16;5056867;28;20037;-36
2021/01/05 10:09:20;;;;;;;9.30;5.00;;;;;;;-148.56;100.00;61375.16;5060739;28;20052;-40
2021/01/05 10:11:47;;;;;;;11.05;5.45;;;;;;;-148.56;100.00;61375.16;5061667;28;20108;-39
2021/01/05 10:14:14;;;;;;;8.13;5.13;;;;;;;-148.56;100.00;61375.16;5060079;28;20090;-39
2021/01/05 10:16:39;;;;;;;10.10;4.90;;;;;;;-148.56;100.00;61375.16;5066727;28;20102;-39
2021/01/05 10:19:05;;;;;;;39.92;6.40;;;;;;;-148.56;100.00;61375.16;5066427;28;20048;-40
2021/01/05 10:21:38;;;;;;;51.67;6.43;;;;;;;-148.56;100.00;61375.16;5057025;28;20077;-36
2021/01/05 10:24:04;;;;;;;29.48;5.40;;;;;;;-148.56;100.00;61375.16;5060507;28;20640;-37
2021/01/05 10:26:30;;;;;;;15.38;5.45;;;;;;;-148.56;100.00;61375.16;5057387;28;20033;-41
2021/01/05 10:28:56;;;;;;;13.48;5.03;;;;;;;-148.56;100.00;61375.16;5059521;28;20036;-40
2021/01/05 10:31:21;;;;;;;19.58;5.30;;;;;;;-148.56;100.00;61375.16;5053313;28;20091;-41
2021/01/05 10:33:47;;;;;;;24.60;5.10;;;;;;;-148.56;100.00;61375.16;5063030;28;20127;-36
2021/01/05 10:36:20;;;;;;;19.48;4.60;;;;;;;-148.56;100.00;61375.16;5067601;28;20040;-42
2021/01/05 10:38:48;;;;;;;13.60;4.65;;;;;;;-148.56;100.00;61375.16;5084468;28;20070;-39
2021/01/05 10:41:15;;;;;;;18.15;5.18;;;;;;;-148.56;100.00;61375.16;5062921;28;20099;-41
2021/01/05 10:43:41;;;;;;;11.80;4.35;;;;;;;-148.56;100.00;61375.16;5063078;28;20145;-41
2021/01/05 10:46:07;;;;;;;15.80;5.30;;;;;;;-148.56;100.00;61375.16;5059747;28;20418;-41
2021/01/05 10:48:34;;;;;;;9.85;4.30;;;;;;;-148.56;100.00;61375.16;5067433;28;20043;-39
2021/01/05 10:50:59;;;;;;;7.18;4.40;;;;;;;-148.56;100.00;61375.16;5061526;28;20036;-41
2021/01/05 10:53:27;;;;;;;8.98;4.63;;;;;;;-148.56;100.00;61375.16;5067319;28;20102;-41
2021/01/05 10:55:52;;;;;;;11.63;4.38;;;;;;;-148.56;100.00;61375.16;5066893;28;20039;-38
2021/01/05 10:58:18;;;;;;;6.95;3.95;;;;;;;-148.56;100.00;61375.16;5064309;28;20469;-37
2021/01/05 11:00:44;;;;;;;14.82;4.07;;;;;;;-148.56;100.00;61375.16;5060065;28;20044;-41
2021/01/05 11:03:10;;;;;;;8.65;4.60;;;;;;;-148.56;100.00;61375.16;5068497;28;20596;-40
2021/01/05 11:05:36;;;;;;;10.68;4.25;;;;;;;-148.56;100.00;61375.16;5050194;28;20110;-41
2021/01/05 11:08:01;;;;;;;7.45;4.00;;;;;;;-148.56;100.00;61375.16;5055973;28;20035;-37
2021/01/05 11:10:27;;;;;;;9.45;3.92;;;;;;;-148.56;100.00;61375.16;5056602;28;20521;-40
2021/01/05 11:12:58;;;;;;;5.57;3.58;;;;;;;-148.56;100.00;61375.16;5055878;28;20065;-42
2021/01/05 11:15:27;;;;;;;7.28;3.65;;;;;;;-148.56;100.00;61375.16;5053958;28;20044;-37
2021/01/05 11:17:53;;;;;;;10.63;4.03;;;;;;;-148.56;100.00;61375.16;5062300;28;20028;-41
2021/01/05 11:20:19;;;;;;;11.07;4.38;;;;;;;-148.56;100.00;61375.16;5066961;28;20467;-40
2021/01/05 11:22:44;;;;;;;8.45;3.97;;;;;;;-148.56;100.00;61375.16;5061841;28;20055;-41